createdAt,value
2022-10-28T00:01:57.588Z,22.19
2022-10-28T00:06:59.465Z,22.33
2022-10-28T00:09:28.932Z,22.39
2022-10-28T00:11:58.942Z,22.46
2022-10-28T00:14:29.526Z,22.42
2022-10-28T00:16:59.570Z,22.45
2022-10-28T00:19:29.471Z,22.45
2022-10-28T00:21:59.890Z,22.22
2022-10-28T00:24:29.970Z,22.18
2022-10-28T00:27:00.324Z,22.24
2022-10-28T00:29:30.340Z,22.31
2022-10-28T00:32:00.750Z,22.33
2022-10-28T00:34:30.842Z,22.25
2022-10-28T00:37:01.298Z,22.08
2022-10-28T00:39:31.956Z,22.07
2022-10-28T00:42:05.780Z,22.11
2022-10-28T00:44:59.767Z,22.06
2022-10-28T00:47:45.754Z,22.00
2022-10-28T00:50:22.239Z,21.89
2022-10-28T00:53:03.271Z,21.90
2022-10-28T00:55:34.611Z,21.96
2022-10-28T00:58:07.717Z,21.94
2022-10-28T01:00:39.319Z,22.02
2022-10-28T01:03:10.868Z,21.94
2022-10-28T01:05:44.565Z,21.97
2022-10-28T01:08:15.392Z,21.72
2022-10-28T01:11:12.185Z,21.58
2022-10-28T01:14:12.779Z,20.97
2022-10-28T01:17:04.337Z,21.06
2022-10-28T01:20:05.628Z,20.26
2022-10-28T01:23:03.015Z,20.24
2022-10-28T01:25:50.986Z,19.74
2022-10-28T01:28:34.078Z,19.78
2022-10-28T01:31:21.936Z,19.69
2022-10-28T01:34:10.368Z,19.69
2022-10-28T01:36:54.464Z,19.83
2022-10-28T01:39:45.775Z,19.75
2022-10-28T01:42:33.519Z,19.88
2022-10-28T01:45:12.643Z,20.02
2022-10-28T01:48:04.256Z,19.97
2022-10-28T01:50:54.750Z,19.81
2022-10-28T01:53:30.134Z,19.57
2022-10-28T01:56:04.429Z,19.40
2022-10-28T01:58:36.875Z,19.35
2022-10-28T02:01:10.882Z,19.17
2022-10-28T02:03:41.155Z,19.45
2022-10-28T02:06:19.986Z,19.39
2022-10-28T02:09:04.814Z,18.83
2022-10-28T02:12:12.445Z,18.62
2022-10-28T02:15:03.497Z,18.44
2022-10-28T02:18:04.131Z,18.48
2022-10-28T02:20:56.918Z,18.87
2022-10-28T02:23:44.662Z,18.73
2022-10-28T02:26:39.675Z,18.55
2022-10-28T02:29:32.635Z,18.61
2022-10-28T02:32:13.720Z,18.56
2022-10-28T02:34:47.445Z,18.62
2022-10-28T02:37:28.290Z,18.92
2022-10-28T02:40:09.399Z,18.92
2022-10-28T02:42:45.535Z,18.83
2022-10-28T02:45:38.975Z,18.82
2022-10-28T02:48:20.656Z,18.93
2022-10-28T02:50:59.451Z,18.90
2022-10-28T02:53:34.416Z,18.98
2022-10-28T02:56:09.033Z,18.92
2022-10-28T02:58:42.998Z,18.55
2022-10-28T03:01:13.620Z,18.52
2022-10-28T03:03:43.978Z,18.36
2022-10-28T03:06:17.575Z,18.48
2022-10-28T03:08:47.718Z,18.62
2022-10-28T03:11:17.730Z,18.61
2022-10-28T03:13:47.885Z,18.38
2022-10-28T03:16:18.307Z,18.53
2022-10-28T03:18:48.327Z,18.59
2022-10-28T03:21:18.319Z,18.62
2022-10-28T03:23:48.128Z,18.70
2022-10-28T03:26:18.291Z,18.68
2022-10-28T03:28:49.083Z,18.79
2022-10-28T03:31:19.298Z,18.94
2022-10-28T03:33:49.946Z,19.06
2022-10-28T03:36:19.911Z,18.87
2022-10-28T03:38:49.961Z,18.71
2022-10-28T03:41:20.474Z,18.68
2022-10-28T03:43:50.247Z,18.70
2022-10-28T03:46:21.163Z,18.27
2022-10-28T03:48:51.163Z,18.27
2022-10-28T03:51:21.579Z,18.06
2022-10-28T03:53:51.360Z,18.05
2022-10-28T03:56:23.767Z,17.94
2022-10-28T04:01:28.943Z,17.91
2022-10-28T04:03:59.056Z,18.01
2022-10-28T04:06:29.366Z,17.84
2022-10-28T04:08:59.361Z,17.79
2022-10-28T04:11:29.427Z,17.90
2022-10-28T04:14:00.032Z,18.01
2022-10-28T04:16:30.472Z,17.85
2022-10-28T04:19:00.610Z,17.77
2022-10-28T04:21:31.062Z,17.71
2022-10-28T04:24:01.397Z,17.54
2022-10-28T04:26:32.924Z,17.78
2022-10-28T04:29:02.931Z,17.90
2022-10-28T04:31:32.825Z,17.81
2022-10-28T04:34:02.825Z,17.31
2022-10-28T04:36:32.757Z,17.21
2022-10-28T04:39:03.130Z,17.04
2022-10-28T04:41:33.410Z,17.02
2022-10-28T04:44:03.800Z,17.09
2022-10-28T04:46:33.995Z,16.95
2022-10-28T04:49:04.345Z,16.95
2022-10-28T04:51:34.321Z,16.98
2022-10-28T04:54:04.879Z,16.89
2022-10-28T04:56:34.799Z,17.14
2022-10-28T04:59:05.232Z,17.16
2022-10-28T05:01:35.296Z,17.13
2022-10-28T05:04:05.343Z,17.12
2022-10-28T05:06:35.042Z,17.17
2022-10-28T05:09:05.226Z,17.06
2022-10-28T05:11:35.078Z,17.09
2022-10-28T05:14:05.312Z,17.02
2022-10-28T05:16:35.724Z,17.03
2022-10-28T05:19:05.884Z,17.07
2022-10-28T05:21:36.266Z,17.19
2022-10-28T05:24:06.821Z,17.30
2022-10-28T05:26:37.196Z,17.20
2022-10-28T05:29:07.279Z,17.04
2022-10-28T05:31:37.118Z,17.15
2022-10-28T05:34:09.655Z,17.17
2022-10-28T05:36:40.225Z,17.14
2022-10-28T05:39:10.354Z,17.19
2022-10-28T05:41:40.196Z,17.12
2022-10-28T05:44:09.881Z,17.10
2022-10-28T05:46:39.872Z,17.09
2022-10-28T05:49:12.153Z,17.05
2022-10-28T05:51:42.096Z,17.10
2022-10-28T05:54:12.609Z,17.04
2022-10-28T05:56:42.402Z,17.13
2022-10-28T05:59:12.778Z,16.86
2022-10-28T06:01:42.859Z,16.80
2022-10-28T06:04:13.481Z,16.45
2022-10-28T06:06:43.588Z,16.42
2022-10-28T06:09:13.583Z,16.35
2022-10-28T06:11:42.691Z,16.54
2022-10-28T06:14:12.597Z,16.22
2022-10-28T06:16:43.564Z,16.00
2022-10-28T06:19:13.580Z,16.32
2022-10-28T06:21:44.163Z,15.86
2022-10-28T06:24:14.386Z,15.73
2022-10-28T06:26:44.301Z,15.77
2022-10-28T06:29:18.919Z,15.51
2022-10-28T06:31:49.398Z,15.96
2022-10-28T06:34:21.484Z,15.83
2022-10-28T06:36:52.092Z,15.78
2022-10-28T06:39:21.923Z,15.86
2022-10-28T06:41:52.546Z,15.73
2022-10-28T06:44:22.489Z,15.68
2022-10-28T06:46:54.084Z,15.87
2022-10-28T06:49:23.851Z,15.92
2022-10-28T06:51:53.864Z,16.08
2022-10-28T06:54:24.233Z,15.94
2022-10-28T06:56:56.977Z,15.81
2022-10-28T06:59:27.417Z,15.97
2022-10-28T07:01:57.517Z,16.04
2022-10-28T07:04:27.473Z,16.05
2022-10-28T07:07:00.237Z,16.11
2022-10-28T07:09:31.335Z,16.04
2022-10-28T07:12:04.826Z,16.25
2022-10-28T07:14:36.012Z,16.13
2022-10-28T07:17:06.860Z,16.02
2022-10-28T07:19:37.196Z,15.86
2022-10-28T07:22:07.586Z,15.89
2022-10-28T07:24:37.933Z,15.87
2022-10-28T07:27:07.959Z,15.86
2022-10-28T07:29:38.355Z,15.82
2022-10-28T07:32:08.617Z,15.80
2022-10-28T07:34:41.806Z,15.72
2022-10-28T07:37:14.075Z,15.65
2022-10-28T07:39:44.513Z,15.23
2022-10-28T07:42:14.317Z,15.43
2022-10-28T07:44:44.788Z,15.47
2022-10-28T07:47:14.828Z,15.64
2022-10-28T07:49:45.615Z,15.77
2022-10-28T07:52:15.632Z,15.44
2022-10-28T07:54:45.424Z,15.24
2022-10-28T07:57:15.799Z,15.15
2022-10-28T07:59:46.246Z,15.36
2022-10-28T08:02:25.412Z,15.54
2022-10-28T08:04:57.947Z,15.46
2022-10-28T08:07:28.386Z,15.30
2022-10-28T08:09:58.309Z,15.52
2022-10-28T08:12:29.666Z,15.63
2022-10-28T08:14:59.647Z,15.53
2022-10-28T08:17:29.636Z,15.71
2022-10-28T08:19:59.998Z,15.93
2022-10-28T08:22:30.059Z,15.81
2022-10-28T08:25:00.423Z,15.85
2022-10-28T08:27:30.374Z,15.19
2022-10-28T08:30:00.829Z,15.46
2022-10-28T08:32:30.793Z,15.11
2022-10-28T08:35:01.225Z,15.11
2022-10-28T08:37:31.374Z,14.96
2022-10-28T08:40:01.288Z,14.89
2022-10-28T08:42:42.827Z,14.76
2022-10-28T08:45:49.061Z,15.14
2022-10-28T08:48:37.775Z,15.37
2022-10-28T08:51:17.701Z,15.44
2022-10-28T08:54:01.917Z,15.71
2022-10-28T08:56:50.366Z,15.97
2022-10-28T08:59:42.120Z,16.29
2022-10-28T09:02:24.086Z,16.52
2022-10-28T09:04:58.645Z,16.75
2022-10-28T09:07:32.328Z,16.89
2022-10-28T09:10:02.311Z,17.18
2022-10-28T09:12:38.588Z,17.24
2022-10-28T09:15:27.900Z,17.69
2022-10-28T09:18:19.710Z,17.95
2022-10-28T09:21:04.449Z,18.19
2022-10-28T09:23:38.892Z,18.56
2022-10-28T09:26:21.954Z,18.92
2022-10-28T09:28:57.492Z,18.87
2022-10-28T09:31:33.545Z,19.18
2022-10-28T09:34:20.309Z,19.45
2022-10-28T09:36:56.489Z,19.62
2022-10-28T09:39:36.459Z,20.11
2022-10-28T09:42:07.261Z,20.36
2022-10-28T09:44:47.038Z,20.58
2022-10-28T09:47:39.930Z,20.84
2022-10-28T09:50:23.188Z,21.11
2022-10-28T09:53:04.924Z,21.63
2022-10-28T09:55:35.417Z,21.72
2022-10-28T09:58:06.720Z,21.72
2022-10-28T10:00:37.052Z,21.80
2022-10-28T10:03:07.351Z,21.67
2022-10-28T10:05:43.988Z,21.91
2022-10-28T10:08:20.141Z,22.17
2022-10-28T10:11:02.189Z,22.37
2022-10-28T10:13:42.742Z,22.57
2022-10-28T10:16:38.637Z,22.82
2022-10-28T10:19:12.294Z,23.15
2022-10-28T10:21:48.763Z,23.61
2022-10-28T10:24:24.570Z,23.97
2022-10-28T10:26:55.795Z,24.08
2022-10-28T10:29:27.129Z,24.37
2022-10-28T10:32:07.839Z,24.35
2022-10-28T10:34:38.362Z,25.00
2022-10-28T10:37:24.075Z,25.50
2022-10-28T10:40:26.688Z,25.85
2022-10-28T10:43:12.951Z,26.15
2022-10-28T10:45:51.976Z,26.16
2022-10-28T10:48:22.824Z,26.62
2022-10-28T10:50:53.934Z,26.67
2022-10-28T10:53:30.113Z,26.92
2022-10-28T10:56:04.551Z,27.11
2022-10-28T10:58:39.173Z,27.37
2022-10-28T11:01:10.719Z,27.42
2022-10-28T11:03:49.606Z,27.67
2022-10-28T11:06:29.838Z,28.20
2022-10-28T11:09:03.694Z,28.55
2022-10-28T11:11:42.843Z,28.73
2022-10-28T11:14:16.081Z,28.83
2022-10-28T11:16:52.050Z,28.76
2022-10-28T11:19:36.637Z,28.92
2022-10-28T11:22:21.286Z,29.08
2022-10-28T11:25:16.381Z,29.66
2022-10-28T11:27:57.534Z,30.07
2022-10-28T11:30:44.117Z,30.71
2022-10-28T11:33:29.989Z,31.36
2022-10-28T11:36:09.574Z,31.83
2022-10-28T11:38:50.664Z,32.33
2022-10-28T11:41:41.684Z,32.72
2022-10-28T11:44:37.368Z,31.42
2022-10-28T11:47:26.225Z,31.78
2022-10-28T11:50:19.922Z,32.36
2022-10-28T11:53:20.018Z,33.25
2022-10-28T11:55:55.810Z,32.90
2022-10-28T11:59:01.417Z,33.83
2022-10-28T12:01:35.969Z,33.79
2022-10-28T12:04:43.307Z,34.01
2022-10-28T12:07:31.348Z,34.13
2022-10-28T12:10:12.195Z,34.45
2022-10-28T12:13:08.002Z,35.26
2022-10-28T12:16:30.335Z,35.74
2022-10-28T12:19:10.492Z,36.12
2022-10-28T12:21:47.467Z,36.24
2022-10-28T12:24:21.849Z,36.26
2022-10-28T12:27:07.681Z,36.62
2022-10-28T12:29:50.072Z,36.97
2022-10-28T12:32:23.214Z,36.92
2022-10-28T12:35:14.835Z,36.60
2022-10-28T12:38:09.365Z,36.88
2022-10-28T12:40:50.782Z,36.91
2022-10-28T12:43:39.545Z,36.19
2022-10-28T12:46:28.029Z,36.39
2022-10-28T12:49:04.752Z,37.25
2022-10-28T12:51:41.587Z,37.35
2022-10-28T12:54:24.421Z,36.61
2022-10-28T12:57:15.576Z,37.35
2022-10-28T12:59:57.249Z,37.49
2022-10-28T13:02:40.983Z,36.59
2022-10-28T13:05:23.437Z,36.34
2022-10-28T13:08:11.758Z,36.08
2022-10-28T13:10:57.098Z,37.35
2022-10-28T13:13:45.209Z,38.28
2022-10-28T13:16:22.137Z,38.34
2022-10-28T13:19:19.368Z,37.21
2022-10-28T13:22:07.957Z,38.37
2022-10-28T13:25:03.024Z,37.72
2022-10-28T13:27:33.691Z,37.46
2022-10-28T13:30:04.753Z,37.91
2022-10-28T13:32:41.159Z,37.86
2022-10-28T13:35:25.335Z,38.37
2022-10-28T13:37:57.775Z,39.08
2022-10-28T13:40:34.882Z,39.91
2022-10-28T13:43:05.414Z,40.21
2022-10-28T13:45:57.776Z,40.57
2022-10-28T13:48:31.477Z,40.22
2022-10-28T13:51:13.538Z,39.86
2022-10-28T13:53:51.850Z,40.18
2022-10-28T13:56:46.995Z,39.24
2022-10-28T13:59:20.360Z,39.00
2022-10-28T14:02:02.051Z,39.83
2022-10-28T14:04:40.716Z,40.35
2022-10-28T14:07:13.824Z,40.30
2022-10-28T14:09:44.851Z,40.21
2022-10-28T14:12:20.268Z,40.41
2022-10-28T14:15:08.666Z,41.05
2022-10-28T14:17:44.001Z,41.40
2022-10-28T14:20:24.719Z,41.09
2022-10-28T14:22:55.500Z,41.13
2022-10-28T14:25:46.910Z,41.09
2022-10-28T14:28:32.057Z,40.25
2022-10-28T14:31:12.610Z,40.86
2022-10-28T14:33:45.375Z,40.32
2022-10-28T14:36:21.802Z,39.34
2022-10-28T14:39:28.142Z,39.32
2022-10-28T14:42:21.892Z,38.98
2022-10-28T14:45:22.190Z,38.46
2022-10-28T14:48:23.509Z,38.67
2022-10-28T14:50:56.386Z,39.65
2022-10-28T14:53:35.020Z,39.74
2022-10-28T14:56:07.224Z,40.09
2022-10-28T14:58:43.678Z,40.61
2022-10-28T15:01:24.601Z,39.91
2022-10-28T15:03:57.071Z,40.42
2022-10-28T15:06:40.465Z,40.10
2022-10-28T15:09:34.233Z,38.74
2022-10-28T15:12:06.823Z,39.54
2022-10-28T15:14:42.312Z,39.64
2022-10-28T15:17:24.099Z,38.72
2022-10-28T15:20:00.052Z,39.10
2022-10-28T15:22:34.337Z,38.40
2022-10-28T15:25:07.836Z,37.64
2022-10-28T15:27:40.025Z,38.28
2022-10-28T15:30:24.657Z,39.29
2022-10-28T15:33:23.617Z,39.76
2022-10-28T15:35:54.250Z,40.95
2022-10-28T15:38:29.839Z,39.87
2022-10-28T15:41:00.643Z,39.51
2022-10-28T15:43:33.081Z,38.39
2022-10-28T15:46:16.836Z,38.68
2022-10-28T15:48:47.262Z,38.62
2022-10-28T15:51:19.501Z,38.86
2022-10-28T15:53:58.089Z,39.56
2022-10-28T15:56:31.917Z,39.59
2022-10-28T15:59:05.368Z,38.90
2022-10-28T16:01:42.292Z,39.77
2022-10-28T16:04:24.951Z,39.63
2022-10-28T16:07:10.318Z,39.56
2022-10-28T16:09:48.247Z,39.44
2022-10-28T16:12:24.847Z,38.98
2022-10-28T16:15:04.408Z,38.20
2022-10-28T16:17:38.762Z,38.87
2022-10-28T16:20:19.591Z,38.97
2022-10-28T16:22:49.605Z,38.41
2022-10-28T16:25:22.815Z,38.65
2022-10-28T16:27:53.620Z,38.84
2022-10-28T16:30:23.908Z,38.93
2022-10-28T16:32:54.642Z,39.42
2022-10-28T16:35:25.672Z,39.94
2022-10-28T16:37:56.115Z,40.27
2022-10-28T16:43:22.004Z,41.65
2022-10-28T16:45:54.124Z,42.05
2022-10-28T16:48:26.620Z,41.84
2022-10-28T16:50:59.204Z,42.16
2022-10-28T16:53:29.809Z,42.86
2022-10-28T16:56:02.671Z,42.48
2022-10-28T16:58:34.979Z,41.32
2022-10-28T17:01:05.006Z,40.59
2022-10-28T17:03:35.477Z,39.94
2022-10-28T17:06:05.555Z,40.08
2022-10-28T17:09:02.471Z,40.95
2022-10-28T17:11:25.712Z,41.46
2022-10-28T17:13:55.697Z,41.82
2022-10-28T17:16:28.867Z,42.13
2022-10-28T17:18:58.846Z,42.70
2022-10-28T17:21:29.362Z,42.93
2022-10-28T17:23:59.294Z,43.03
2022-10-28T17:26:29.668Z,42.67
2022-10-28T17:28:59.925Z,41.78
2022-10-28T17:31:33.590Z,42.31
2022-10-28T17:34:03.539Z,42.24
2022-10-28T17:36:34.658Z,40.99
2022-10-28T17:39:05.626Z,41.44
2022-10-28T17:41:35.630Z,41.98
2022-10-28T17:44:05.786Z,42.46
2022-10-28T17:46:36.478Z,42.84
2022-10-28T17:49:09.653Z,43.05
2022-10-28T17:51:40.591Z,42.09
2022-10-28T17:54:10.892Z,40.07
2022-10-28T17:56:43.099Z,40.88
2022-10-28T17:59:13.120Z,40.78
2022-10-28T18:01:43.880Z,40.89
2022-10-28T18:04:13.926Z,41.29
2022-10-28T18:06:44.863Z,40.27
2022-10-28T18:09:15.217Z,39.39
2022-10-28T18:11:45.929Z,39.85
2022-10-28T18:14:16.035Z,38.67
2022-10-28T18:16:51.357Z,39.09
2022-10-28T18:19:24.570Z,38.48
2022-10-28T18:21:55.276Z,39.61
2022-10-28T18:24:26.095Z,37.89
2022-10-28T18:26:58.040Z,36.87
2022-10-28T18:29:28.089Z,36.65
2022-10-28T18:31:58.536Z,37.00
2022-10-28T18:34:29.135Z,36.59
2022-10-28T18:36:59.745Z,36.35
2022-10-28T18:39:31.954Z,36.75
2022-10-28T18:42:02.333Z,37.52
2022-10-28T18:44:33.052Z,37.05
2022-10-28T18:47:03.374Z,37.41
2022-10-28T18:49:33.871Z,36.61
2022-10-28T18:52:03.901Z,36.75
2022-10-28T18:54:35.578Z,36.54
2022-10-28T18:57:05.658Z,36.77
2022-10-28T18:59:43.281Z,36.94
2022-10-28T19:02:22.901Z,37.29
2022-10-28T19:04:53.421Z,37.46
2022-10-28T19:07:23.361Z,37.79
2022-10-28T19:09:53.870Z,38.49
2022-10-28T19:12:23.905Z,37.27
2022-10-28T19:14:54.419Z,37.97
2022-10-28T19:17:24.550Z,37.22
2022-10-28T19:19:55.652Z,36.28
2022-10-28T19:22:25.833Z,35.23
2022-10-28T19:24:56.320Z,34.74
2022-10-28T19:27:27.342Z,34.78
2022-10-28T19:30:00.893Z,34.81
2022-10-28T19:32:31.804Z,34.11
2022-10-28T19:35:02.247Z,33.45
2022-10-28T19:37:32.589Z,33.51
2022-10-28T19:40:03.044Z,33.38
2022-10-28T19:42:33.086Z,33.34
2022-10-28T19:45:04.987Z,33.25
2022-10-28T19:47:35.083Z,33.54
2022-10-28T19:50:05.654Z,33.41
2022-10-28T19:52:35.723Z,33.62
2022-10-28T19:55:08.761Z,33.38
2022-10-28T19:57:41.002Z,33.19
2022-10-28T20:00:12.147Z,33.16
2022-10-28T20:02:42.248Z,32.97
2022-10-28T20:05:12.793Z,32.71
2022-10-28T20:07:42.790Z,32.72
2022-10-28T20:10:13.205Z,32.69
2022-10-28T20:12:43.221Z,32.36
2022-10-28T20:15:13.653Z,32.20
2022-10-28T20:17:43.754Z,32.38
2022-10-28T20:20:16.175Z,32.48
2022-10-28T20:22:46.312Z,32.34
2022-10-28T20:25:22.559Z,32.09
2022-10-28T20:27:52.997Z,31.91
2022-10-28T20:30:23.781Z,31.64
2022-10-28T20:32:55.858Z,31.47
2022-10-28T20:35:26.629Z,31.41
2022-10-28T20:37:57.027Z,31.32
2022-10-28T20:40:27.765Z,31.01
2022-10-28T20:42:58.131Z,30.83
2022-10-28T20:45:29.424Z,30.76
2022-10-28T20:47:59.489Z,30.66
2022-10-28T20:50:30.205Z,30.51
2022-10-28T20:53:00.206Z,30.40
2022-10-28T20:55:30.906Z,30.29
2022-10-28T20:58:00.942Z,30.20
2022-10-28T21:00:36.724Z,30.28
2022-10-28T21:03:06.814Z,30.12
2022-10-28T21:05:37.596Z,30.08
2022-10-28T21:08:07.466Z,29.76
2022-10-28T21:10:38.588Z,29.56
2022-10-28T21:13:08.994Z,29.30
2022-10-28T21:15:41.148Z,29.30
2022-10-28T21:18:11.238Z,29.26
2022-10-28T21:20:41.954Z,29.17
2022-10-28T21:23:12.750Z,29.03
2022-10-28T21:25:43.575Z,28.70
2022-10-28T21:28:13.357Z,28.48
2022-10-28T21:30:44.100Z,28.18
2022-10-28T21:33:15.208Z,27.80
2022-10-28T21:35:46.023Z,27.60
2022-10-28T21:38:18.195Z,27.42
2022-10-28T21:40:48.627Z,27.07
2022-10-28T21:43:18.022Z,26.98
2022-10-28T21:45:48.529Z,26.86
2022-10-28T21:48:17.780Z,26.67
2022-10-28T21:51:15.416Z,26.39
2022-10-28T21:53:46.996Z,26.25
2022-10-28T21:56:19.660Z,26.11
2022-10-28T21:58:52.336Z,25.99
2022-10-28T22:01:25.043Z,25.83
2022-10-28T22:03:57.113Z,25.70
2022-10-28T22:06:27.191Z,25.50
2022-10-28T22:08:57.845Z,25.51
2022-10-28T22:11:28.005Z,25.33
2022-10-28T22:14:00.458Z,25.28
2022-10-28T22:16:32.839Z,25.28
2022-10-28T22:19:05.529Z,25.48
2022-10-28T22:21:41.252Z,25.18
2022-10-28T22:24:12.636Z,25.24
2022-10-28T22:26:42.629Z,24.89
2022-10-28T22:29:13.172Z,24.85
2022-10-28T22:31:44.415Z,24.59
2022-10-28T22:34:14.828Z,24.54
2022-10-28T22:36:46.223Z,24.35
2022-10-28T22:39:16.691Z,24.32
2022-10-28T22:41:46.177Z,24.11
2022-10-28T22:44:15.901Z,23.98
2022-10-28T22:46:46.353Z,23.79
2022-10-28T22:49:15.871Z,23.77
2022-10-28T22:51:45.796Z,23.49
2022-10-28T22:54:16.583Z,23.38
2022-10-28T22:56:46.922Z,23.27
2022-10-28T22:59:17.277Z,23.18
2022-10-28T23:01:48.228Z,23.10
2022-10-28T23:04:18.925Z,23.05
2022-10-28T23:06:51.456Z,23.09
2022-10-28T23:09:21.985Z,23.08
2022-10-28T23:11:51.441Z,23.06
2022-10-28T23:14:21.091Z,22.94
2022-10-28T23:16:51.517Z,22.82
2022-10-28T23:19:23.613Z,22.70
2022-10-28T23:21:53.958Z,22.76
2022-10-28T23:24:23.906Z,22.68
2022-10-28T23:26:54.293Z,22.64
2022-10-28T23:29:24.378Z,22.54
2022-10-28T23:31:54.858Z,22.50
2022-10-28T23:34:24.909Z,22.35
2022-10-28T23:36:56.963Z,22.17
2022-10-28T23:39:27.204Z,22.04
2022-10-28T23:42:00.614Z,21.87
2022-10-28T23:44:30.036Z,21.85
2022-10-28T23:46:59.758Z,21.88
2022-10-28T23:49:30.205Z,22.02
2022-10-28T23:52:02.828Z,22.15
2022-10-28T23:54:33.506Z,22.28
2022-10-28T23:57:03.452Z,22.39
2022-10-28T23:59:33.357Z,22.10
